createdAt,value
2018-06-10T00:00:45.695Z,26.4
2018-06-10T00:03:42.631Z,26.4
2018-06-10T00:06:39.711Z,26.4
2018-06-10T00:09:36.667Z,26.3
2018-06-10T00:12:33.688Z,26.3
2018-06-10T00:15:30.607Z,26.3
2018-06-10T00:18:27.695Z,26.3
2018-06-10T00:21:24.653Z,26.3
2018-06-10T00:27:18.713Z,26.2
2018-06-10T00:30:15.694Z,26.3
2018-06-10T00:33:12.737Z,26.2
2018-06-10T00:36:09.727Z,26.2
2018-06-10T00:39:06.759Z,26.2
2018-06-10T00:42:03.717Z,26.2
2018-06-10T00:45:00.737Z,26.2
2018-06-10T00:47:57.695Z,26.1
2018-06-10T00:50:54.924Z,26.1
2018-06-10T00:53:51.702Z,26.2
2018-06-10T00:56:48.781Z,26.1
2018-06-10T00:59:45.736Z,26
2018-06-10T01:02:42.773Z,26
2018-06-10T01:05:39.700Z,26
2018-06-10T01:08:36.764Z,26
2018-06-10T01:14:30.775Z,26
2018-06-10T01:17:27.711Z,26
2018-06-10T01:23:21.814Z,26
2018-06-10T01:26:18.775Z,26
2018-06-10T01:29:15.814Z,26
2018-06-10T01:32:12.804Z,26.1
2018-06-10T01:35:09.796Z,26
2018-06-10T01:38:06.749Z,26
2018-06-10T01:41:03.806Z,26.1
2018-06-10T01:44:00.798Z,26.1
2018-06-10T01:46:57.805Z,26.1
2018-06-10T01:49:54.787Z,26.1
2018-06-10T01:52:51.848Z,26.1
2018-06-10T01:55:48.820Z,26.2
2018-06-10T01:58:45.878Z,26.2
2018-06-10T02:01:42.792Z,26.2
2018-06-10T02:04:39.827Z,26.3
2018-06-10T02:07:36.826Z,26.3
2018-06-10T02:13:30.850Z,26.4
2018-06-10T02:16:27.877Z,26.4
2018-06-10T02:19:24.876Z,26.6
2018-06-10T02:22:21.814Z,26.7
2018-06-10T02:25:18.858Z,26.7
2018-06-10T02:28:15.816Z,26.7
2018-06-10T02:31:12.849Z,26.8
2018-06-10T02:34:09.803Z,26.8
2018-06-10T02:37:06.873Z,26.9
2018-06-10T02:40:03.857Z,27
2018-06-10T02:43:00.911Z,27.1
2018-06-10T02:48:54.890Z,27.2
2018-06-10T02:51:51.874Z,27.2
2018-06-10T02:54:48.910Z,27.2
2018-06-10T02:57:45.833Z,27.2
2018-06-10T03:00:42.905Z,27.2
2018-06-10T03:03:39.866Z,27.3
2018-06-10T03:06:36.916Z,27.4
2018-06-10T03:09:33.888Z,27.4
2018-06-10T03:12:30.932Z,27.4
2018-06-10T03:15:27.875Z,27.4
2018-06-10T03:21:21.946Z,27.4
2018-06-10T03:24:18.898Z,27.4
2018-06-10T03:27:15.945Z,27.4
2018-06-10T03:30:12.961Z,27.4
2018-06-10T03:36:06.942Z,26.9
2018-06-10T03:42:00.995Z,26.4
2018-06-10T03:44:57.944Z,26.3
2018-06-10T03:50:51.989Z,26.4
2018-06-10T03:53:48.937Z,26.4
2018-06-10T03:56:45.983Z,26.5
2018-06-10T04:05:36.994Z,26.5
2018-06-10T04:11:30.998Z,26.4
2018-06-10T04:14:27.966Z,26.4
2018-06-10T04:17:25.003Z,26.4
2018-06-10T04:20:21.976Z,26.4
2018-06-10T04:26:16.026Z,26.3
2018-06-10T04:32:10.004Z,26.4
2018-06-10T04:35:06.995Z,26.3
2018-06-10T04:38:04.034Z,26.4
2018-06-10T04:41:00.985Z,26.4
2018-06-10T04:43:58.020Z,26.4
2018-06-10T04:46:55.007Z,26.4
2018-06-10T04:49:52.048Z,26.4
2018-06-10T04:52:48.996Z,26.4
2018-06-10T04:55:46.024Z,26.5
2018-06-10T04:58:43.031Z,26.4
2018-06-10T05:04:37.044Z,26.5
2018-06-10T05:07:34.050Z,26.5
2018-06-10T05:10:31.078Z,26.5
2018-06-10T05:19:22.116Z,26.6
2018-06-10T05:22:19.047Z,26.6
2018-06-10T05:25:16.279Z,26.6
2018-06-10T05:28:13.021Z,26.6
2018-06-10T05:31:10.108Z,26.7
2018-06-10T05:37:04.093Z,26.8
2018-06-10T05:42:58.112Z,27
2018-06-10T05:45:55.075Z,27.1
2018-06-10T05:48:52.105Z,27.1
2018-06-10T05:51:49.092Z,27.2
2018-06-10T06:03:37.150Z,27.4
2018-06-10T06:09:31.153Z,27.5
2018-06-10T06:15:25.155Z,27.6
2018-06-10T06:21:19.176Z,28
2018-06-10T06:24:16.141Z,28.3
2018-06-10T06:30:10.195Z,28.4
2018-06-10T06:41:58.168Z,28.7
2018-06-10T06:44:55.207Z,28.8
2018-06-10T06:47:52.203Z,28.7
2018-06-10T06:53:46.399Z,28.6
2018-06-10T06:56:43.187Z,28.6
2018-06-10T07:02:37.230Z,28.4
2018-06-10T07:05:34.211Z,28.4
2018-06-10T07:08:31.229Z,28.3
2018-06-10T07:11:28.215Z,28.3
2018-06-10T07:14:25.242Z,28.3
2018-06-10T07:17:22.216Z,28.3
2018-06-10T07:23:16.231Z,28.4
2018-06-10T07:26:13.186Z,28.4
2018-06-10T07:29:10.260Z,28.4
2018-06-10T07:35:04.283Z,28.3
2018-06-10T07:38:01.245Z,28.3
2018-06-10T07:40:58.275Z,28.2
2018-06-10T07:52:46.306Z,28.3
2018-06-10T07:58:40.321Z,28.3
2018-06-10T08:04:34.308Z,28.2
2018-06-10T08:07:31.288Z,28.1
2018-06-10T08:16:22.315Z,28.1
2018-06-10T08:19:19.296Z,28
2018-06-10T08:22:16.346Z,28
2018-06-10T08:25:13.302Z,28
2018-06-10T08:28:10.314Z,28
2018-06-10T08:45:52.364Z,27.7
2018-06-10T08:48:49.307Z,27.7
2018-06-10T08:51:46.388Z,27.7
2018-06-10T08:54:43.337Z,27.7
2018-06-10T08:57:40.387Z,27.7
2018-06-10T09:00:37.333Z,27.7
2018-06-10T09:03:34.398Z,27.7
2018-06-10T09:06:31.348Z,27.7
2018-06-10T09:12:25.368Z,27.7
2018-06-10T09:15:22.369Z,27.6
2018-06-10T09:21:16.415Z,27.7
2018-06-10T09:24:13.370Z,27.7
2018-06-10T09:30:07.409Z,27.8
2018-06-10T09:33:04.379Z,27.8
2018-06-10T09:36:01.435Z,27.8
2018-06-10T09:44:52.408Z,27.8
2018-06-10T09:47:49.411Z,27.8
2018-06-10T09:50:46.453Z,27.8
2018-06-10T09:53:43.431Z,27.8
2018-06-10T10:08:28.486Z,27.7
2018-06-10T10:11:25.440Z,27.7
2018-06-10T10:17:19.489Z,27.6
2018-06-10T10:23:13.477Z,27.7
2018-06-10T10:26:10.461Z,27.7
2018-06-10T10:29:07.462Z,27.8
2018-06-10T10:35:01.499Z,27.7
2018-06-10T10:37:58.450Z,27.8
2018-06-10T10:43:52.519Z,27.7
2018-06-10T10:46:49.462Z,27.6
2018-06-10T10:49:46.492Z,27.6
2018-06-10T10:52:43.504Z,27.6
2018-06-10T10:55:40.700Z,27.5
2018-06-10T11:01:34.545Z,27.5
2018-06-10T11:04:31.521Z,27.5
2018-06-10T11:07:28.550Z,27.5
2018-06-10T11:10:25.523Z,27.6
2018-06-10T11:13:22.560Z,27.5
2018-06-10T11:16:19.517Z,27.5
2018-06-10T11:22:13.546Z,27.4
2018-06-10T11:25:10.548Z,27.4
2018-06-10T11:28:07.574Z,27.4
2018-06-10T11:31:04.543Z,27.4
2018-06-10T11:34:01.558Z,27.5
2018-06-10T11:36:58.545Z,27.4
2018-06-10T11:39:55.597Z,27.4
2018-06-10T11:45:49.607Z,27.4
2018-06-10T11:48:46.579Z,27.4
2018-06-10T11:54:40.591Z,27.5
2018-06-10T11:57:37.576Z,27.6
2018-06-10T12:06:28.633Z,27.5
2018-06-10T12:12:22.622Z,27.5
2018-06-10T12:15:19.629Z,27.5
2018-06-10T12:21:13.639Z,27.5
2018-06-10T12:24:10.592Z,27.4
2018-06-10T12:33:01.664Z,27.3
2018-06-10T12:44:49.683Z,27.4
2018-06-10T12:47:46.649Z,27.3
2018-06-10T12:50:43.709Z,27.3
2018-06-10T12:53:40.668Z,27.2
2018-06-10T12:56:37.709Z,27.2
2018-06-10T12:59:34.677Z,27.2
2018-06-10T13:02:31.733Z,27.2
2018-06-10T13:08:25.719Z,27.2
2018-06-10T13:11:22.700Z,27.2
2018-06-10T13:14:19.711Z,27.2
2018-06-10T13:17:16.670Z,27.2
2018-06-10T13:20:13.749Z,27.2
2018-06-10T13:26:07.735Z,27.1
2018-06-10T13:34:58.744Z,27.2
2018-06-10T13:37:55.718Z,27.2
2018-06-10T13:40:52.756Z,27.2
2018-06-10T13:43:49.724Z,27.2
2018-06-10T13:46:46.772Z,27.2
2018-06-10T13:49:43.729Z,27.2
2018-06-10T13:52:40.771Z,27.2
2018-06-10T13:55:37.752Z,27.2
2018-06-10T14:01:31.781Z,27.2
2018-06-10T14:04:28.770Z,27.2
2018-06-10T14:07:25.798Z,27.2
2018-06-10T14:10:22.744Z,27.2
2018-06-10T14:13:19.793Z,27.2
2018-06-10T14:16:16.784Z,27.2
2018-06-10T14:22:10.785Z,27.2
2018-06-10T14:25:07.784Z,27.2
2018-06-10T14:28:04.828Z,27.3
2018-06-10T14:31:01.783Z,27.3
2018-06-10T14:33:58.830Z,27.3
2018-06-10T14:36:55.793Z,27.2
2018-06-10T14:39:52.830Z,27.2
2018-06-10T14:48:43.845Z,27.3
2018-06-10T14:51:40.813Z,27.3
2018-06-10T14:54:37.853Z,27.3
2018-06-10T14:57:34.830Z,27.3
2018-06-10T15:00:31.870Z,27.3
2018-06-10T15:06:25.866Z,27.3
2018-06-10T15:09:22.836Z,27.4
2018-06-10T15:15:16.868Z,27.4
2018-06-10T15:24:07.881Z,27.4
2018-06-10T15:30:01.907Z,27.4
2018-06-10T15:32:58.867Z,27.4
2018-06-10T15:35:55.901Z,27.4
2018-06-10T15:38:52.862Z,27.4
2018-06-10T15:41:49.909Z,27.4
2018-06-10T15:44:46.880Z,27.4
2018-06-10T15:47:43.905Z,27.4
2018-06-10T15:50:40.910Z,27.5
2018-06-10T15:56:34.931Z,27.4
2018-06-10T15:59:31.867Z,27.5
2018-06-10T16:02:28.956Z,27.5
2018-06-10T16:05:25.904Z,27.5
2018-06-10T16:08:22.947Z,27.5
2018-06-10T16:11:19.930Z,27.5
2018-06-10T16:14:16.980Z,27.5
2018-06-10T16:17:13.923Z,27.5
2018-06-10T16:20:10.999Z,27.5
2018-06-10T16:26:05.377Z,27.5
2018-06-10T16:29:01.920Z,27.5
2018-06-10T16:31:58.998Z,27.5
2018-06-10T16:34:55.918Z,27.5
2018-06-10T16:37:53.154Z,27.5
2018-06-10T16:40:49.948Z,27.5
2018-06-10T16:43:46.968Z,27.5
2018-06-10T16:46:43.957Z,27.5
2018-06-10T16:49:41.004Z,27.5
2018-06-10T16:52:37.960Z,27.6
2018-06-10T16:55:35.010Z,27.6
2018-06-10T16:58:31.969Z,27.5
2018-06-10T17:07:23.000Z,27.5
2018-06-10T17:10:19.997Z,27.5
2018-06-10T17:13:17.035Z,27.5
2018-06-10T17:16:14.046Z,27.5
2018-06-10T17:19:11.037Z,27.5
2018-06-10T17:22:08.007Z,27.5
2018-06-10T17:25:05.047Z,27.5
2018-06-10T17:28:01.989Z,27.5
2018-06-10T17:30:59.069Z,27.5
2018-06-10T17:33:56.008Z,27.5
2018-06-10T17:36:53.065Z,27.5
2018-06-10T17:39:50.034Z,27.4
2018-06-10T17:42:47.192Z,27.5
2018-06-10T17:45:44.035Z,27.5
2018-06-10T17:48:41.083Z,27.4
2018-06-10T17:51:38.050Z,27.5
2018-06-10T17:54:35.107Z,27.4
2018-06-10T17:57:32.034Z,27.5
2018-06-10T18:00:29.103Z,27.5
2018-06-10T18:03:26.058Z,27.4
2018-06-10T18:06:23.152Z,27.4
2018-06-10T18:09:20.061Z,27.4
2018-06-10T18:12:17.111Z,27.4
2018-06-10T18:18:11.101Z,27.4
2018-06-10T18:21:08.142Z,27.4
2018-06-10T18:24:05.126Z,27.4
2018-06-10T18:27:02.086Z,27.4
2018-06-10T18:29:59.136Z,27.4
2018-06-10T18:32:56.097Z,27.5
2018-06-10T18:35:53.138Z,27.4
2018-06-10T18:41:47.160Z,27.4
2018-06-10T18:44:44.186Z,27.4
2018-06-10T18:47:41.192Z,27.4
2018-06-10T18:50:38.126Z,27.4
2018-06-10T18:56:32.167Z,27.4
2018-06-10T18:59:29.131Z,27.4
2018-06-10T19:05:23.180Z,27.4
2018-06-10T19:08:20.153Z,27.4
2018-06-10T19:11:17.188Z,27.4
2018-06-10T19:14:14.133Z,27.4
2018-06-10T19:20:08.202Z,27.5
2018-06-10T19:23:05.153Z,27.5
2018-06-10T19:26:02.184Z,27.5
2018-06-10T19:28:59.187Z,27.5
2018-06-10T19:31:56.386Z,27.5
2018-06-10T19:34:53.172Z,27.5
2018-06-10T19:37:50.241Z,27.4
2018-06-10T19:40:47.197Z,27.4
2018-06-10T19:43:44.239Z,27.4
2018-06-10T19:46:41.196Z,27.5
2018-06-10T19:49:38.244Z,27.4
2018-06-10T19:52:35.200Z,27.4
2018-06-10T19:55:32.261Z,27.5
2018-06-10T19:58:29.209Z,27.5
2018-06-10T20:01:26.307Z,27.5
2018-06-10T20:04:23.208Z,27.5
2018-06-10T20:10:17.264Z,27.5
2018-06-10T20:16:11.264Z,27.5
2018-06-10T20:19:08.243Z,27.5
2018-06-10T20:22:05.292Z,27.5
2018-06-10T20:25:02.233Z,27.5
2018-06-10T20:27:59.275Z,27.5
2018-06-10T20:30:56.228Z,27.5
2018-06-10T20:33:53.316Z,27.5
2018-06-10T20:36:50.257Z,27.5
2018-06-10T20:39:47.276Z,27.5
2018-06-10T20:42:44.271Z,27.5
2018-06-10T20:48:38.329Z,27.4
2018-06-10T20:51:35.286Z,27.4
2018-06-10T20:54:32.375Z,27.4
2018-06-10T21:00:26.417Z,27.4
2018-06-10T21:03:23.253Z,27.5
2018-06-10T21:06:20.341Z,27.5
2018-06-10T21:09:17.300Z,27.5
2018-06-10T21:12:14.328Z,27.5
2018-06-10T21:15:11.313Z,27.5
2018-06-10T21:18:08.354Z,27.4
2018-06-10T21:21:05.334Z,27.4
2018-06-10T21:24:02.367Z,27.4
2018-06-10T21:26:59.337Z,27.4
2018-06-10T21:29:56.359Z,27.4
2018-06-10T21:35:50.396Z,27.5
2018-06-10T21:38:47.342Z,27.6
2018-06-10T21:41:44.368Z,27.6
2018-06-10T21:44:41.331Z,27.6
2018-06-10T21:47:38.413Z,27.6
2018-06-10T21:53:32.381Z,27.6
2018-06-10T21:56:29.359Z,27.6
2018-06-10T21:59:26.404Z,27.6
2018-06-10T22:05:20.458Z,27.6
2018-06-10T22:08:17.390Z,27.6
2018-06-10T22:11:14.417Z,27.6
2018-06-10T22:14:11.392Z,27.6
2018-06-10T22:17:08.400Z,27.6
2018-06-10T22:20:05.403Z,27.6
2018-06-10T22:23:02.448Z,27.6
2018-06-10T22:25:59.410Z,27.6
2018-06-10T22:28:56.414Z,27.6
2018-06-10T22:34:50.455Z,27.7
2018-06-10T22:37:47.389Z,27.7
2018-06-10T22:40:44.459Z,27.7
2018-06-10T22:43:41.429Z,27.7
2018-06-10T22:46:38.458Z,27.7
2018-06-10T22:49:35.400Z,27.7
2018-06-10T22:52:32.485Z,27.7
2018-06-10T22:55:29.441Z,27.8
2018-06-10T22:58:26.469Z,27.8
2018-06-10T23:01:23.455Z,27.8
2018-06-10T23:04:20.506Z,27.8
2018-06-10T23:07:17.911Z,27.8
2018-06-10T23:10:14.512Z,27.8
2018-06-10T23:13:11.471Z,27.8
2018-06-10T23:16:08.512Z,27.8
2018-06-10T23:19:05.495Z,27.8
2018-06-10T23:22:02.533Z,27.8
2018-06-10T23:24:59.471Z,27.8
2018-06-10T23:27:56.607Z,27.9
2018-06-10T23:30:53.488Z,27.9
2018-06-10T23:33:50.538Z,27.9
2018-06-10T23:36:47.491Z,27.9
2018-06-10T23:39:44.538Z,28
2018-06-10T23:42:41.494Z,28
2018-06-10T23:45:38.549Z,28
2018-06-10T23:48:35.514Z,28
2018-06-10T23:51:32.547Z,28.1
2018-06-10T23:57:26.718Z,28.1
